Terminal Aerodrome Forecast
Issued by NWS

Home | Current Version | Previous Version | Text Only | Print | Product List | Glossary On
Versions: 1 2 3 4 5 6 7 8 9 10 11 12 13 14 15 16 17
000
FTUS43 KEAX 210500
TAFMKC
TAF
KMKC 210520Z 2106/2206 03004KT 6SM -RA BR BKN009 OVC013
     FM210900 VRB02KT 4SM BR SCT009
     FM211430 35006KT P6SM SCT040
     FM220100 00000KT P6SM SCT140=

USA.gov is the U.S. government's official web portal to all federal, state and local government web resources and services.